Time,TemperatureF,DewpointF,PressureIn,WindDirection,WindDirectionDegrees,WindSpeedMPH,WindSpeedGustMPH,Humidity,HourlyPrecipIn,Conditions,Clouds,dailyrainin,SoftwareType,DateUTC
2013-06-06 00:02:00,83.0,-99.9,-100.00,WSW,246,7.0,14.0,-999,-99.99,,,-99.99,,2013-06-06 07:02:00,
2013-06-06 00:22:00,82.0,-99.9,-100.00,WSW,245,5.0,14.0,-999,-99.99,,,-99.99,,2013-06-06 07:22:00,
2013-06-06 00:33:00,82.0,-99.9,-100.00,WSW,245,5.0,14.0,-999,-99.99,,,-99.99,,2013-06-06 07:33:00,
2013-06-06 01:52:00,82.0,-99.9,-100.00,WSW,252,10.0,20.0,-999,-99.99,,,-99.99,,2013-06-06 08:52:00,
2013-06-06 02:02:00,82.0,-99.9,-100.00,WSW,252,10.0,20.0,-999,-99.99,,,-99.99,,2013-06-06 09:02:00,
2013-06-06 03:03:00,80.0,-99.9,-100.00,NNW,330,4.0,18.0,-999,-99.99,,,-99.99,,2013-06-06 10:03:00,
2013-06-06 03:12:00,80.0,-99.9,-100.00,NNW,330,4.0,18.0,-999,-99.99,,,-99.99,,2013-06-06 10:12:00,
2013-06-06 03:23:00,80.0,-99.9,-100.00,NNW,330,4.0,18.0,-999,-99.99,,,-99.99,,2013-06-06 10:23:00,
2013-06-06 03:33:00,81.0,-99.9,-100.00,WSW,258,12.0,25.0,-999,-99.99,,,-99.99,,2013-06-06 10:33:00,
2013-06-06 03:42:00,81.0,-99.9,-100.00,WSW,258,12.0,25.0,-999,-99.99,,,-99.99,,2013-06-06 10:42:00,
2013-06-06 03:53:00,81.0,-99.9,-100.00,WSW,258,12.0,25.0,-999,-99.99,,,-99.99,,2013-06-06 10:53:00,
2013-06-06 06:33:00,80.0,-99.9,-100.00,West,281,10.0,17.0,-999,-99.99,,,-99.99,,2013-06-06 13:33:00,
2013-06-06 06:43:00,80.0,-99.9,-100.00,West,281,10.0,17.0,-999,-99.99,,,-99.99,,2013-06-06 13:43:00,
2013-06-06 06:53:00,80.0,-99.9,-100.00,West,281,10.0,17.0,-999,-99.99,,,-99.99,,2013-06-06 13:53:00,
2013-06-06 07:03:00,80.0,-99.9,-100.00,WNW,292,8.0,14.0,-999,-99.99,,,-99.99,,2013-06-06 14:03:00,
2013-06-06 07:13:00,80.0,-99.9,-100.00,WNW,292,8.0,14.0,-999,-99.99,,,-99.99,,2013-06-06 14:13:00,
2013-06-06 10:03:00,91.0,-99.9,-100.00,West,274,9.0,11.0,-999,-99.99,,,-99.99,,2013-06-06 17:03:00,
2013-06-06 10:13:00,91.0,-99.9,-100.00,West,274,9.0,11.0,-999,-99.99,,,-99.99,,2013-06-06 17:13:00,
2013-06-06 13:00:00,105.0,-99.9,-100.00,West,277,4.0,9.0,-999,-99.99,,,-99.99,,2013-06-06 20:00:00,
2013-06-06 13:03:00,103.0,-99.9,-100.00,West,279,6.0,8.0,-999,-99.99,,,-99.99,,2013-06-06 20:03:00,
2013-06-06 13:13:00,103.0,-99.9,-100.00,West,279,6.0,8.0,-999,-99.99,,,-99.99,,2013-06-06 20:13:00,
2013-06-06 13:30:00,104.0,-99.9,-100.00,NNE,26,0.0,11.0,-999,-99.99,,,-99.99,,2013-06-06 20:30:00,
2013-06-06 13:53:00,105.0,-99.9,-100.00,West,277,4.0,9.0,-999,-99.99,,,-99.99,,2013-06-06 20:53:00,
2013-06-06 14:23:00,104.0,-99.9,-100.00,NNE,26,0.0,11.0,-999,-99.99,,,-99.99,,2013-06-06 21:23:00,
2013-06-06 15:50:00,104.0,-99.9,-100.00,West,279,15.0,16.0,-999,-99.99,,,-99.99,,2013-06-06 22:50:00,
2013-06-06 16:22:00,105.0,-99.9,-100.00,West,272,5.0,16.0,-999,-99.99,,,-99.99,,2013-06-06 23:22:00,
2013-06-06 16:33:00,104.0,-99.9,-100.00,West,279,15.0,16.0,-999,-99.99,,,-99.99,,2013-06-06 23:33:00,
2013-06-06 16:43:00,104.0,-99.9,-100.00,West,279,15.0,16.0,-999,-99.99,,,-99.99,,2013-06-06 23:43:00,
2013-06-06 18:53:00,99.0,-99.9,-100.00,WSW,252,8.0,17.0,-999,-99.99,,,-99.99,,2013-06-07 01:53:00,
2013-06-06 19:02:00,99.0,-99.9,-100.00,WSW,252,8.0,17.0,-999,-99.99,,,-99.99,,2013-06-07 02:02:00,
2013-06-06 19:10:00,95.0,-99.9,-100.00,West,273,15.0,20.0,-999,-99.99,,,-99.99,,2013-06-07 02:10:00,
2013-06-06 19:22:00,97.0,-99.9,-100.00,WNW,295,8.0,22.0,-999,-99.99,,,-99.99,,2013-06-07 02:22:00,
2013-06-06 19:32:00,97.0,-99.9,-100.00,WSW,242,7.0,17.0,-999,-99.99,,,-99.99,,2013-06-07 02:32:00,
2013-06-06 19:42:00,97.0,-99.9,-100.00,WSW,242,7.0,17.0,-999,-99.99,,,-99.99,,2013-06-07 02:42:00,
2013-06-06 19:52:00,95.0,-99.9,-100.00,West,273,15.0,20.0,-999,-99.99,,,-99.99,,2013-06-07 02:52:00,
2013-06-06 20:02:00,95.0,-99.9,-100.00,West,273,15.0,20.0,-999,-99.99,,,-99.99,,2013-06-07 03:02:00,
2013-06-06 22:52:00,86.0,-99.9,-100.00,West,264,11.0,16.0,-999,-99.99,,,-99.99,,2013-06-07 05:52:00,
2013-06-06 23:02:00,85.0,-99.9,-100.00,West,261,13.0,16.0,-999,-99.99,,,-99.99,,2013-06-07 06:02:00,
2013-06-06 23:13:00,85.0,-99.9,-100.00,West,261,13.0,16.0,-999,-99.99,,,-99.99,,2013-06-07 06:13:00,